sensor_id;sensor_type;location;lat;lon;timestamp;P1;durP1;ratioP1;P2;durP2;ratioP2
36931;SDS011;22847;42.654;23.370;2023-07-13T00:02:05;8.68;;;4.22;;
36931;SDS011;22847;42.654;23.370;2023-07-13T00:04:31;6.55;;;4.38;;
36931;SDS011;22847;42.654;23.370;2023-07-13T00:06:56;6.43;;;4.60;;
36931;SDS011;22847;42.654;23.370;2023-07-13T00:09:22;8.63;;;4.57;;
36931;SDS011;22847;42.654;23.370;2023-07-13T00:11:52;7.05;;;4.68;;
36931;SDS011;22847;42.654;23.370;2023-07-13T00:14:19;7.00;;;4.32;;
36931;SDS011;22847;42.654;23.370;2023-07-13T00:16:45;5.38;;;4.05;;
36931;SDS011;22847;42.654;23.370;2023-07-13T00:19:11;9.02;;;4.65;;
36931;SDS011;22847;42.654;23.370;2023-07-13T00:21:38;11.50;;;5.30;;
36931;SDS011;22847;42.654;23.370;2023-07-13T00:24:05;5.00;;;3.72;;
36931;SDS011;22847;42.654;23.370;2023-07-13T00:26:31;6.55;;;4.45;;
36931;SDS011;22847;42.654;23.370;2023-07-13T00:28:57;6.40;;;4.57;;
36931;SDS011;22847;42.654;23.370;2023-07-13T00:31:23;8.07;;;4.72;;
36931;SDS011;22847;42.654;23.370;2023-07-13T00:33:49;7.95;;;4.68;;
36931;SDS011;22847;42.654;23.370;2023-07-13T00:36:14;13.63;;;4.30;;
36931;SDS011;22847;42.654;23.370;2023-07-13T00:38:40;8.27;;;4.20;;
36931;SDS011;22847;42.654;23.370;2023-07-13T00:41:05;7.47;;;4.68;;
36931;SDS011;22847;42.654;23.370;2023-07-13T00:43:31;10.43;;;5.40;;
36931;SDS011;22847;42.654;23.370;2023-07-13T00:48:46;8.65;;;4.55;;
36931;SDS011;22847;42.654;23.370;2023-07-13T00:51:14;9.48;;;4.97;;
36931;SDS011;22847;42.654;23.370;2023-07-13T00:53:42;10.35;;;4.63;;
36931;SDS011;22847;42.654;23.370;2023-07-13T00:56:08;6.05;;;4.70;;
36931;SDS011;22847;42.654;23.370;2023-07-13T00:58:34;9.63;;;5.40;;
36931;SDS011;22847;42.654;23.370;2023-07-13T01:01:00;6.30;;;4.53;;
36931;SDS011;22847;42.654;23.370;2023-07-13T01:03:26;6.80;;;4.78;;
36931;SDS011;22847;42.654;23.370;2023-07-13T01:05:51;5.85;;;4.53;;
36931;SDS011;22847;42.654;23.370;2023-07-13T01:08:18;9.52;;;4.97;;
36931;SDS011;22847;42.654;23.370;2023-07-13T01:10:52;6.25;;;4.28;;
36931;SDS011;22847;42.654;23.370;2023-07-13T01:13:21;9.32;;;4.55;;
36931;SDS011;22847;42.654;23.370;2023-07-13T01:15:48;6.28;;;4.15;;
36931;SDS011;22847;42.654;23.370;2023-07-13T01:18:17;6.85;;;4.28;;
36931;SDS011;22847;42.654;23.370;2023-07-13T01:20:57;11.60;;;4.75;;
36931;SDS011;22847;42.654;23.370;2023-07-13T01:23:25;7.35;;;4.60;;
36931;SDS011;22847;42.654;23.370;2023-07-13T01:25:52;5.63;;;4.47;;
36931;SDS011;22847;42.654;23.370;2023-07-13T01:28:20;6.80;;;4.55;;
36931;SDS011;22847;42.654;23.370;2023-07-13T01:30:46;8.90;;;4.57;;
36931;SDS011;22847;42.654;23.370;2023-07-13T01:33:12;9.65;;;5.00;;
36931;SDS011;22847;42.654;23.370;2023-07-13T01:35:41;10.77;;;4.90;;
36931;SDS011;22847;42.654;23.370;2023-07-13T01:38:08;12.20;;;4.97;;
36931;SDS011;22847;42.654;23.370;2023-07-13T01:40:34;8.13;;;5.18;;
36931;SDS011;22847;42.654;23.370;2023-07-13T01:43:00;7.65;;;4.90;;
36931;SDS011;22847;42.654;23.370;2023-07-13T01:45:26;6.45;;;4.80;;
36931;SDS011;22847;42.654;23.370;2023-07-13T01:47:51;7.13;;;5.18;;
36931;SDS011;22847;42.654;23.370;2023-07-13T01:50:17;6.95;;;4.82;;
36931;SDS011;22847;42.654;23.370;2023-07-13T01:52:42;14.43;;;5.13;;
36931;SDS011;22847;42.654;23.370;2023-07-13T01:55:08;7.72;;;5.32;;
36931;SDS011;22847;42.654;23.370;2023-07-13T01:57:34;6.18;;;4.90;;
36931;SDS011;22847;42.654;23.370;2023-07-13T01:59:59;11.45;;;4.97;;
36931;SDS011;22847;42.654;23.370;2023-07-13T02:02:26;8.07;;;4.88;;
36931;SDS011;22847;42.654;23.370;2023-07-13T02:04:51;9.18;;;5.13;;
36931;SDS011;22847;42.654;23.370;2023-07-13T02:07:17;7.97;;;5.20;;
36931;SDS011;22847;42.654;23.370;2023-07-13T02:09:42;12.45;;;4.75;;
36931;SDS011;22847;42.654;23.370;2023-07-13T02:12:08;9.85;;;5.30;;
36931;SDS011;22847;42.654;23.370;2023-07-13T02:14:33;9.05;;;4.85;;
36931;SDS011;22847;42.654;23.370;2023-07-13T02:16:59;6.22;;;4.63;;
36931;SDS011;22847;42.654;23.370;2023-07-13T02:19:24;8.57;;;5.20;;
36931;SDS011;22847;42.654;23.370;2023-07-13T02:21:50;8.05;;;4.78;;
36931;SDS011;22847;42.654;23.370;2023-07-13T02:24:15;7.82;;;4.93;;
36931;SDS011;22847;42.654;23.370;2023-07-13T02:26:43;9.48;;;5.45;;
36931;SDS011;22847;42.654;23.370;2023-07-13T02:29:09;7.35;;;5.22;;
36931;SDS011;22847;42.654;23.370;2023-07-13T02:31:34;7.15;;;5.18;;
36931;SDS011;22847;42.654;23.370;2023-07-13T02:34:01;10.75;;;5.30;;
36931;SDS011;22847;42.654;23.370;2023-07-13T02:36:26;10.25;;;5.50;;
36931;SDS011;22847;42.654;23.370;2023-07-13T02:38:52;9.90;;;5.30;;
36931;SDS011;22847;42.654;23.370;2023-07-13T02:41:17;7.68;;;5.03;;
36931;SDS011;22847;42.654;23.370;2023-07-13T02:43:42;10.75;;;5.28;;
36931;SDS011;22847;42.654;23.370;2023-07-13T02:46:08;8.52;;;4.85;;
36931;SDS011;22847;42.654;23.370;2023-07-13T02:48:34;8.20;;;5.15;;
36931;SDS011;22847;42.654;23.370;2023-07-13T02:50:59;7.65;;;5.47;;
36931;SDS011;22847;42.654;23.370;2023-07-13T02:53:25;8.57;;;5.47;;
36931;SDS011;22847;42.654;23.370;2023-07-13T03:07:31;9.55;;;5.78;;
36931;SDS011;22847;42.654;23.370;2023-07-13T03:09:57;11.38;;;6.07;;
36931;SDS011;22847;42.654;23.370;2023-07-13T03:12:23;14.52;;;5.53;;
36931;SDS011;22847;42.654;23.370;2023-07-13T03:14:49;6.38;;;5.35;;
36931;SDS011;22847;42.654;23.370;2023-07-13T03:17:15;9.48;;;5.57;;
36931;SDS011;22847;42.654;23.370;2023-07-13T03:19:40;7.28;;;5.70;;
36931;SDS011;22847;42.654;23.370;2023-07-13T03:22:06;10.77;;;5.82;;
36931;SDS011;22847;42.654;23.370;2023-07-13T03:24:34;9.75;;;5.53;;
36931;SDS011;22847;42.654;23.370;2023-07-13T03:27:01;10.65;;;5.43;;
36931;SDS011;22847;42.654;23.370;2023-07-13T03:29:27;6.85;;;5.35;;
36931;SDS011;22847;42.654;23.370;2023-07-13T03:31:52;9.10;;;5.50;;
36931;SDS011;22847;42.654;23.370;2023-07-13T03:34:18;9.35;;;6.72;;
36931;SDS011;22847;42.654;23.370;2023-07-13T03:36:43;17.90;;;7.68;;
36931;SDS011;22847;42.654;23.370;2023-07-13T03:39:09;11.43;;;6.47;;
36931;SDS011;22847;42.654;23.370;2023-07-13T03:41:34;11.40;;;6.25;;
36931;SDS011;22847;42.654;23.370;2023-07-13T03:44:00;9.43;;;5.68;;
36931;SDS011;22847;42.654;23.370;2023-07-13T03:46:25;8.52;;;6.13;;
36931;SDS011;22847;42.654;23.370;2023-07-13T03:48:51;14.00;;;5.95;;
36931;SDS011;22847;42.654;23.370;2023-07-13T03:51:17;10.38;;;6.45;;
36931;SDS011;22847;42.654;23.370;2023-07-13T03:53:43;13.43;;;6.63;;
36931;SDS011;22847;42.654;23.370;2023-07-13T03:56:10;14.18;;;6.82;;
36931;SDS011;22847;42.654;23.370;2023-07-13T03:58:37;12.82;;;7.00;;
36931;SDS011;22847;42.654;23.370;2023-07-13T04:01:05;15.20;;;6.20;;
36931;SDS011;22847;42.654;23.370;2023-07-13T04:03:32;12.35;;;6.07;;
36931;SDS011;22847;42.654;23.370;2023-07-13T04:05:59;9.45;;;5.97;;
36931;SDS011;22847;42.654;23.370;2023-07-13T04:08:29;13.00;;;7.20;;
36931;SDS011;22847;42.654;23.370;2023-07-13T04:10:56;9.70;;;6.35;;
36931;SDS011;22847;42.654;23.370;2023-07-13T04:13:22;14.85;;;6.10;;
36931;SDS011;22847;42.654;23.370;2023-07-13T04:15:48;12.85;;;6.68;;
36931;SDS011;22847;42.654;23.370;2023-07-13T04:18:14;9.27;;;6.63;;
36931;SDS011;22847;42.654;23.370;2023-07-13T04:20:39;14.98;;;8.82;;
36931;SDS011;22847;42.654;23.370;2023-07-13T04:23:04;13.20;;;7.28;;
36931;SDS011;22847;42.654;23.370;2023-07-13T04:25:30;16.30;;;7.03;;
36931;SDS011;22847;42.654;23.370;2023-07-13T04:27:55;12.25;;;7.18;;
36931;SDS011;22847;42.654;23.370;2023-07-13T04:30:21;16.80;;;7.50;;
36931;SDS011;22847;42.654;23.370;2023-07-13T04:32:46;14.05;;;7.20;;
36931;SDS011;22847;42.654;23.370;2023-07-13T04:35:12;22.02;;;7.60;;
36931;SDS011;22847;42.654;23.370;2023-07-13T04:37:39;14.88;;;7.07;;
36931;SDS011;22847;42.654;23.370;2023-07-13T04:40:05;21.35;;;7.68;;
36931;SDS011;22847;42.654;23.370;2023-07-13T04:42:31;15.32;;;7.28;;
36931;SDS011;22847;42.654;23.370;2023-07-13T04:44:56;15.10;;;6.75;;
36931;SDS011;22847;42.654;23.370;2023-07-13T04:47:22;13.55;;;6.85;;
36931;SDS011;22847;42.654;23.370;2023-07-13T04:49:47;12.38;;;6.32;;
36931;SDS011;22847;42.654;23.370;2023-07-13T04:52:12;11.40;;;7.00;;
36931;SDS011;22847;42.654;23.370;2023-07-13T04:54:38;21.55;;;7.78;;
36931;SDS011;22847;42.654;23.370;2023-07-13T04:57:04;16.10;;;7.57;;
36931;SDS011;22847;42.654;23.370;2023-07-13T04:59:33;8.65;;;7.20;;
36931;SDS011;22847;42.654;23.370;2023-07-13T05:01:59;16.02;;;8.65;;
36931;SDS011;22847;42.654;23.370;2023-07-13T05:04:24;14.35;;;7.20;;
36931;SDS011;22847;42.654;23.370;2023-07-13T05:06:50;13.90;;;7.57;;
36931;SDS011;22847;42.654;23.370;2023-07-13T05:09:15;17.50;;;7.55;;
36931;SDS011;22847;42.654;23.370;2023-07-13T05:11:41;14.18;;;7.53;;
36931;SDS011;22847;42.654;23.370;2023-07-13T05:14:08;17.42;;;7.20;;
36931;SDS011;22847;42.654;23.370;2023-07-13T05:16:34;24.52;;;7.38;;
36931;SDS011;22847;42.654;23.370;2023-07-13T05:19:00;17.00;;;7.07;;
36931;SDS011;22847;42.654;23.370;2023-07-13T05:21:25;15.52;;;7.53;;
36931;SDS011;22847;42.654;23.370;2023-07-13T05:23:51;18.35;;;7.38;;
36931;SDS011;22847;42.654;23.370;2023-07-13T05:26:16;15.45;;;8.07;;
36931;SDS011;22847;42.654;23.370;2023-07-13T05:28:42;16.63;;;7.20;;
36931;SDS011;22847;42.654;23.370;2023-07-13T05:31:08;31.80;;;7.50;;
36931;SDS011;22847;42.654;23.370;2023-07-13T05:33:34;16.35;;;7.50;;
36931;SDS011;22847;42.654;23.370;2023-07-13T05:36:00;14.43;;;7.35;;
36931;SDS011;22847;42.654;23.370;2023-07-13T05:38:26;12.32;;;6.63;;
36931;SDS011;22847;42.654;23.370;2023-07-13T05:40:53;10.88;;;6.75;;
36931;SDS011;22847;42.654;23.370;2023-07-13T05:43:20;11.70;;;7.30;;
36931;SDS011;22847;42.654;23.370;2023-07-13T05:45:45;13.88;;;6.78;;
36931;SDS011;22847;42.654;23.370;2023-07-13T05:48:11;12.20;;;7.22;;
36931;SDS011;22847;42.654;23.370;2023-07-13T05:50:36;14.50;;;8.15;;
36931;SDS011;22847;42.654;23.370;2023-07-13T05:53:02;10.30;;;7.07;;
36931;SDS011;22847;42.654;23.370;2023-07-13T05:55:27;12.18;;;6.82;;
36931;SDS011;22847;42.654;23.370;2023-07-13T05:57:52;9.75;;;6.43;;
36931;SDS011;22847;42.654;23.370;2023-07-13T06:00:18;11.70;;;6.13;;
36931;SDS011;22847;42.654;23.370;2023-07-13T06:02:44;11.32;;;7.30;;
36931;SDS011;22847;42.654;23.370;2023-07-13T06:05:09;8.93;;;6.10;;
36931;SDS011;22847;42.654;23.370;2023-07-13T06:07:34;13.95;;;6.78;;
36931;SDS011;22847;42.654;23.370;2023-07-13T06:10:00;10.85;;;6.97;;
36931;SDS011;22847;42.654;23.370;2023-07-13T06:12:26;12.85;;;6.70;;
36931;SDS011;22847;42.654;23.370;2023-07-13T06:14:52;10.98;;;7.05;;
36931;SDS011;22847;42.654;23.370;2023-07-13T06:17:17;14.10;;;6.90;;
36931;SDS011;22847;42.654;23.370;2023-07-13T06:19:43;11.10;;;6.45;;
36931;SDS011;22847;42.654;23.370;2023-07-13T06:22:08;14.27;;;6.65;;
36931;SDS011;22847;42.654;23.370;2023-07-13T06:24:33;15.85;;;6.82;;
36931;SDS011;22847;42.654;23.370;2023-07-13T06:26:59;12.10;;;6.88;;
36931;SDS011;22847;42.654;23.370;2023-07-13T06:29:24;11.77;;;6.82;;
36931;SDS011;22847;42.654;23.370;2023-07-13T06:31:50;9.48;;;6.82;;
36931;SDS011;22847;42.654;23.370;2023-07-13T06:34:15;15.00;;;7.00;;
36931;SDS011;22847;42.654;23.370;2023-07-13T06:36:40;18.45;;;7.75;;
36931;SDS011;22847;42.654;23.370;2023-07-13T06:39:06;11.15;;;6.95;;
36931;SDS011;22847;42.654;23.370;2023-07-13T06:41:32;10.38;;;7.43;;
36931;SDS011;22847;42.654;23.370;2023-07-13T06:43:58;10.85;;;7.00;;
36931;SDS011;22847;42.654;23.370;2023-07-13T06:46:23;9.13;;;6.57;;
36931;SDS011;22847;42.654;23.370;2023-07-13T06:48:50;10.88;;;6.53;;
36931;SDS011;22847;42.654;23.370;2023-07-13T06:51:15;12.88;;;6.75;;
36931;SDS011;22847;42.654;23.370;2023-07-13T06:53:41;10.82;;;6.90;;
36931;SDS011;22847;42.654;23.370;2023-07-13T06:56:08;10.93;;;6.95;;
36931;SDS011;22847;42.654;23.370;2023-07-13T06:58:34;15.65;;;6.70;;
36931;SDS011;22847;42.654;23.370;2023-07-13T07:01:00;13.95;;;8.38;;
36931;SDS011;22847;42.654;23.370;2023-07-13T07:03:25;9.50;;;7.65;;
36931;SDS011;22847;42.654;23.370;2023-07-13T07:05:50;12.52;;;7.43;;
36931;SDS011;22847;42.654;23.370;2023-07-13T07:08:16;18.00;;;7.50;;
36931;SDS011;22847;42.654;23.370;2023-07-13T07:10:41;13.98;;;7.72;;
36931;SDS011;22847;42.654;23.370;2023-07-13T07:13:07;15.20;;;8.80;;
36931;SDS011;22847;42.654;23.370;2023-07-13T07:15:33;15.60;;;8.43;;
36931;SDS011;22847;42.654;23.370;2023-07-13T07:17:59;14.95;;;9.52;;
36931;SDS011;22847;42.654;23.370;2023-07-13T07:20:25;15.98;;;7.72;;
36931;SDS011;22847;42.654;23.370;2023-07-13T07:22:51;15.68;;;7.97;;
36931;SDS011;22847;42.654;23.370;2023-07-13T07:25:17;15.43;;;7.70;;
36931;SDS011;22847;42.654;23.370;2023-07-13T07:27:42;16.48;;;8.35;;
36931;SDS011;22847;42.654;23.370;2023-07-13T07:30:08;14.25;;;8.10;;
36931;SDS011;22847;42.654;23.370;2023-07-13T07:32:33;15.98;;;8.35;;
36931;SDS011;22847;42.654;23.370;2023-07-13T07:34:59;14.75;;;8.10;;
36931;SDS011;22847;42.654;23.370;2023-07-13T07:37:24;18.90;;;8.40;;
36931;SDS011;22847;42.654;23.370;2023-07-13T07:39:50;15.20;;;7.43;;
36931;SDS011;22847;42.654;23.370;2023-07-13T07:42:15;15.73;;;9.63;;
36931;SDS011;22847;42.654;23.370;2023-07-13T07:44:41;17.27;;;8.63;;
36931;SDS011;22847;42.654;23.370;2023-07-13T07:47:08;17.90;;;8.75;;
36931;SDS011;22847;42.654;23.370;2023-07-13T07:49:34;19.13;;;8.23;;
36931;SDS011;22847;42.654;23.370;2023-07-13T07:52:00;18.65;;;8.52;;
36931;SDS011;22847;42.654;23.370;2023-07-13T07:54:25;24.77;;;9.00;;
36931;SDS011;22847;42.654;23.370;2023-07-13T07:56:51;20.45;;;8.15;;
36931;SDS011;22847;42.654;23.370;2023-07-13T07:59:16;13.05;;;8.40;;
36931;SDS011;22847;42.654;23.370;2023-07-13T08:01:42;22.10;;;8.68;;
36931;SDS011;22847;42.654;23.370;2023-07-13T08:04:08;17.25;;;8.15;;
36931;SDS011;22847;42.654;23.370;2023-07-13T08:06:34;16.90;;;7.50;;
36931;SDS011;22847;42.654;23.370;2023-07-13T08:09:00;24.38;;;8.20;;
36931;SDS011;22847;42.654;23.370;2023-07-13T08:11:26;16.38;;;7.72;;
36931;SDS011;22847;42.654;23.370;2023-07-13T08:13:52;15.30;;;8.40;;
36931;SDS011;22847;42.654;23.370;2023-07-13T08:16:17;12.45;;;7.78;;
36931;SDS011;22847;42.654;23.370;2023-07-13T08:18:43;13.55;;;7.75;;
36931;SDS011;22847;42.654;23.370;2023-07-13T08:21:08;16.27;;;7.85;;
36931;SDS011;22847;42.654;23.370;2023-07-13T08:23:34;15.82;;;7.55;;
36931;SDS011;22847;42.654;23.370;2023-07-13T08:26:01;15.55;;;8.55;;
36931;SDS011;22847;42.654;23.370;2023-07-13T08:28:27;14.70;;;7.82;;
36931;SDS011;22847;42.654;23.370;2023-07-13T08:30:53;13.85;;;7.72;;
36931;SDS011;22847;42.654;23.370;2023-07-13T08:33:19;12.65;;;7.50;;
36931;SDS011;22847;42.654;23.370;2023-07-13T08:35:46;17.27;;;8.32;;
36931;SDS011;22847;42.654;23.370;2023-07-13T08:38:13;18.17;;;8.77;;
36931;SDS011;22847;42.654;23.370;2023-07-13T08:40:39;18.55;;;7.65;;
36931;SDS011;22847;42.654;23.370;2023-07-13T08:43:06;18.85;;;8.10;;
36931;SDS011;22847;42.654;23.370;2023-07-13T08:46:23;21.00;;;8.25;;
36931;SDS011;22847;42.654;23.370;2023-07-13T08:48:41;13.60;;;8.13;;
36931;SDS011;22847;42.654;23.370;2023-07-13T08:53:49;11.90;;;7.28;;
36931;SDS011;22847;42.654;23.370;2023-07-13T08:56:18;17.65;;;7.75;;
36931;SDS011;22847;42.654;23.370;2023-07-13T08:58:47;21.17;;;8.52;;
36931;SDS011;22847;42.654;23.370;2023-07-13T09:01:22;18.90;;;8.05;;
36931;SDS011;22847;42.654;23.370;2023-07-13T09:04:15;13.93;;;7.70;;
36931;SDS011;22847;42.654;23.370;2023-07-13T09:09:26;17.55;;;8.15;;
36931;SDS011;22847;42.654;23.370;2023-07-13T09:14:51;17.02;;;8.10;;
36931;SDS011;22847;42.654;23.370;2023-07-13T09:17:22;30.88;;;10.00;;
36931;SDS011;22847;42.654;23.370;2023-07-13T09:20:01;14.55;;;8.70;;
36931;SDS011;22847;42.654;23.370;2023-07-13T09:22:29;19.30;;;9.40;;
36931;SDS011;22847;42.654;23.370;2023-07-13T09:25:21;14.70;;;8.18;;
36931;SDS011;22847;42.654;23.370;2023-07-13T09:27:49;15.52;;;8.00;;
36931;SDS011;22847;42.654;23.370;2023-07-13T09:30:37;15.73;;;7.85;;
36931;SDS011;22847;42.654;23.370;2023-07-13T09:33:09;19.38;;;8.63;;
36931;SDS011;22847;42.654;23.370;2023-07-13T09:35:35;13.80;;;8.60;;
36931;SDS011;22847;42.654;23.370;2023-07-13T09:40:42;17.65;;;8.32;;
36931;SDS011;22847;42.654;23.370;2023-07-13T09:43:10;19.02;;;8.52;;
36931;SDS011;22847;42.654;23.370;2023-07-13T09:45:39;15.15;;;8.32;;
36931;SDS011;22847;42.654;23.370;2023-07-13T09:48:06;14.10;;;8.77;;
36931;SDS011;22847;42.654;23.370;2023-07-13T09:50:36;16.13;;;8.90;;
36931;SDS011;22847;42.654;23.370;2023-07-13T09:53:02;19.42;;;8.15;;
36931;SDS011;22847;42.654;23.370;2023-07-13T09:58:03;19.38;;;8.80;;
36931;SDS011;22847;42.654;23.370;2023-07-13T10:00:30;17.67;;;8.43;;
36931;SDS011;22847;42.654;23.370;2023-07-13T10:03:04;13.13;;;8.07;;
36931;SDS011;22847;42.654;23.370;2023-07-13T10:05:39;16.73;;;8.73;;
36931;SDS011;22847;42.654;23.370;2023-07-13T10:08:11;17.83;;;9.10;;
36931;SDS011;22847;42.654;23.370;2023-07-13T10:10:43;16.52;;;8.82;;
36931;SDS011;22847;42.654;23.370;2023-07-13T10:13:21;16.38;;;8.55;;
36931;SDS011;22847;42.654;23.370;2023-07-13T10:15:52;18.63;;;9.38;;
36931;SDS011;22847;42.654;23.370;2023-07-13T10:18:17;12.95;;;7.85;;
36931;SDS011;22847;42.654;23.370;2023-07-13T10:20:44;12.82;;;8.05;;
36931;SDS011;22847;42.654;23.370;2023-07-13T10:23:12;18.45;;;8.65;;
36931;SDS011;22847;42.654;23.370;2023-07-13T10:25:45;14.68;;;8.70;;
36931;SDS011;22847;42.654;23.370;2023-07-13T10:28:31;14.35;;;8.85;;
36931;SDS011;22847;42.654;23.370;2023-07-13T10:31:02;16.05;;;8.30;;
36931;SDS011;22847;42.654;23.370;2023-07-13T10:33:35;14.15;;;8.10;;
36931;SDS011;22847;42.654;23.370;2023-07-13T10:36:03;18.77;;;8.75;;
36931;SDS011;22847;42.654;23.370;2023-07-13T10:38:38;13.88;;;8.75;;
36931;SDS011;22847;42.654;23.370;2023-07-13T10:41:06;15.90;;;7.97;;
36931;SDS011;22847;42.654;23.370;2023-07-13T10:43:38;14.48;;;8.00;;
36931;SDS011;22847;42.654;23.370;2023-07-13T10:46:11;21.20;;;8.27;;
36931;SDS011;22847;42.654;23.370;2023-07-13T10:48:40;14.05;;;7.50;;
36931;SDS011;22847;42.654;23.370;2023-07-13T10:51:08;14.15;;;8.05;;
36931;SDS011;22847;42.654;23.370;2023-07-13T10:53:36;16.60;;;7.10;;
36931;SDS011;22847;42.654;23.370;2023-07-13T10:58:37;14.50;;;6.20;;
36931;SDS011;22847;42.654;23.370;2023-07-13T11:01:07;15.88;;;6.82;;
36931;SDS011;22847;42.654;23.370;2023-07-13T11:03:34;13.82;;;6.32;;
36931;SDS011;22847;42.654;23.370;2023-07-13T11:08:35;11.77;;;5.10;;
36931;SDS011;22847;42.654;23.370;2023-07-13T11:11:02;12.52;;;5.53;;
36931;SDS011;22847;42.654;23.370;2023-07-13T11:18:41;16.67;;;5.57;;
36931;SDS011;22847;42.654;23.370;2023-07-13T11:21:15;16.50;;;5.75;;
36931;SDS011;22847;42.654;23.370;2023-07-13T11:23:53;17.42;;;5.75;;
36931;SDS011;22847;42.654;23.370;2023-07-13T11:29:25;9.63;;;5.70;;
36931;SDS011;22847;42.654;23.370;2023-07-13T11:32:00;14.30;;;5.07;;
36931;SDS011;22847;42.654;23.370;2023-07-13T11:34:46;13.60;;;5.82;;
36931;SDS011;22847;42.654;23.370;2023-07-13T11:37:12;10.88;;;6.40;;
36931;SDS011;22847;42.654;23.370;2023-07-13T11:39:42;15.00;;;6.82;;
36931;SDS011;22847;42.654;23.370;2023-07-13T11:42:10;14.23;;;7.35;;
36931;SDS011;22847;42.654;23.370;2023-07-13T11:44:41;12.80;;;7.07;;
36931;SDS011;22847;42.654;23.370;2023-07-13T11:47:19;13.43;;;7.45;;
36931;SDS011;22847;42.654;23.370;2023-07-13T11:49:50;13.38;;;6.78;;
36931;SDS011;22847;42.654;23.370;2023-07-13T11:52:27;12.75;;;7.10;;
36931;SDS011;22847;42.654;23.370;2023-07-13T11:55:02;15.38;;;7.00;;
36931;SDS011;22847;42.654;23.370;2023-07-13T11:57:40;18.25;;;7.53;;
36931;SDS011;22847;42.654;23.370;2023-07-13T12:00:12;12.57;;;7.03;;
36931;SDS011;22847;42.654;23.370;2023-07-13T12:02:43;11.65;;;6.78;;
36931;SDS011;22847;42.654;23.370;2023-07-13T12:05:14;11.23;;;5.72;;
36931;SDS011;22847;42.654;23.370;2023-07-13T12:07:42;13.48;;;5.57;;
36931;SDS011;22847;42.654;23.370;2023-07-13T12:12:37;15.35;;;5.25;;
36931;SDS011;22847;42.654;23.370;2023-07-13T12:15:10;8.63;;;5.43;;
36931;SDS011;22847;42.654;23.370;2023-07-13T12:17:36;13.25;;;5.25;;
36931;SDS011;22847;42.654;23.370;2023-07-13T12:20:03;13.73;;;5.90;;
36931;SDS011;22847;42.654;23.370;2023-07-13T12:22:45;16.00;;;5.30;;
36931;SDS011;22847;42.654;23.370;2023-07-13T12:25:12;13.68;;;5.45;;
36931;SDS011;22847;42.654;23.370;2023-07-13T12:27:37;25.98;;;7.70;;
36931;SDS011;22847;42.654;23.370;2023-07-13T12:30:05;30.42;;;7.00;;
36931;SDS011;22847;42.654;23.370;2023-07-13T12:33:08;18.38;;;5.53;;
36931;SDS011;22847;42.654;23.370;2023-07-13T12:35:42;14.73;;;6.28;;
36931;SDS011;22847;42.654;23.370;2023-07-13T12:38:12;10.82;;;5.75;;
36931;SDS011;22847;42.654;23.370;2023-07-13T12:40:38;16.70;;;6.20;;
36931;SDS011;22847;42.654;23.370;2023-07-13T12:43:09;12.98;;;5.65;;
36931;SDS011;22847;42.654;23.370;2023-07-13T12:45:37;11.80;;;6.00;;
36931;SDS011;22847;42.654;23.370;2023-07-13T12:48:04;18.23;;;5.65;;
36931;SDS011;22847;42.654;23.370;2023-07-13T12:50:40;14.50;;;6.28;;
36931;SDS011;22847;42.654;23.370;2023-07-13T12:53:27;23.45;;;6.93;;
36931;SDS011;22847;42.654;23.370;2023-07-13T12:55:57;15.50;;;7.00;;
36931;SDS011;22847;42.654;23.370;2023-07-13T12:58:36;15.95;;;7.47;;
36931;SDS011;22847;42.654;23.370;2023-07-13T13:01:10;17.90;;;6.38;;
36931;SDS011;22847;42.654;23.370;2023-07-13T13:03:39;16.50;;;6.90;;
36931;SDS011;22847;42.654;23.370;2023-07-13T13:08:41;14.20;;;7.00;;
36931;SDS011;22847;42.654;23.370;2023-07-13T13:11:08;13.40;;;6.75;;
36931;SDS011;22847;42.654;23.370;2023-07-13T13:13:34;15.38;;;6.32;;
36931;SDS011;22847;42.654;23.370;2023-07-13T13:16:14;16.80;;;6.80;;
36931;SDS011;22847;42.654;23.370;2023-07-13T13:18:45;21.92;;;7.50;;
36931;SDS011;22847;42.654;23.370;2023-07-13T13:21:11;14.73;;;6.43;;
36931;SDS011;22847;42.654;23.370;2023-07-13T13:23:36;12.70;;;6.10;;
36931;SDS011;22847;42.654;23.370;2023-07-13T13:26:02;19.20;;;6.97;;
36931;SDS011;22847;42.654;23.370;2023-07-13T13:28:31;18.90;;;6.85;;
36931;SDS011;22847;42.654;23.370;2023-07-13T13:30:57;16.60;;;7.32;;
36931;SDS011;22847;42.654;23.370;2023-07-13T13:33:22;11.75;;;6.68;;
36931;SDS011;22847;42.654;23.370;2023-07-13T13:35:48;18.25;;;6.47;;
36931;SDS011;22847;42.654;23.370;2023-07-13T13:38:14;17.38;;;6.50;;
36931;SDS011;22847;42.654;23.370;2023-07-13T13:40:41;14.50;;;6.40;;
36931;SDS011;22847;42.654;23.370;2023-07-13T13:43:26;13.18;;;6.60;;
36931;SDS011;22847;42.654;23.370;2023-07-13T13:45:53;16.17;;;6.32;;
36931;SDS011;22847;42.654;23.370;2023-07-13T13:48:31;18.00;;;6.63;;
36931;SDS011;22847;42.654;23.370;2023-07-13T13:50:58;16.55;;;6.13;;
36931;SDS011;22847;42.654;23.370;2023-07-13T13:53:25;19.23;;;6.38;;
36931;SDS011;22847;42.654;23.370;2023-07-13T13:55:50;11.40;;;6.50;;
36931;SDS011;22847;42.654;23.370;2023-07-13T13:58:17;17.70;;;7.13;;
36931;SDS011;22847;42.654;23.370;2023-07-13T14:00:44;17.75;;;6.57;;
36931;SDS011;22847;42.654;23.370;2023-07-13T14:03:17;12.00;;;6.32;;
36931;SDS011;22847;42.654;23.370;2023-07-13T14:05:44;24.02;;;6.40;;
36931;SDS011;22847;42.654;23.370;2023-07-13T14:08:17;13.95;;;6.63;;
36931;SDS011;22847;42.654;23.370;2023-07-13T14:10:44;21.98;;;7.13;;
36931;SDS011;22847;42.654;23.370;2023-07-13T14:13:16;21.08;;;6.50;;
36931;SDS011;22847;42.654;23.370;2023-07-13T14:15:44;17.45;;;6.22;;
36931;SDS011;22847;42.654;23.370;2023-07-13T14:18:10;18.65;;;6.90;;
36931;SDS011;22847;42.654;23.370;2023-07-13T14:20:36;12.35;;;7.00;;
36931;SDS011;22847;42.654;23.370;2023-07-13T14:23:02;15.80;;;6.78;;
36931;SDS011;22847;42.654;23.370;2023-07-13T14:25:27;14.63;;;6.32;;
36931;SDS011;22847;42.654;23.370;2023-07-13T14:27:53;14.20;;;6.22;;
36931;SDS011;22847;42.654;23.370;2023-07-13T14:30:24;18.27;;;6.80;;
36931;SDS011;22847;42.654;23.370;2023-07-13T14:32:50;21.55;;;6.85;;
36931;SDS011;22847;42.654;23.370;2023-07-13T14:35:17;11.45;;;6.22;;
36931;SDS011;22847;42.654;23.370;2023-07-13T14:37:45;17.92;;;6.47;;
36931;SDS011;22847;42.654;23.370;2023-07-13T14:40:32;17.40;;;7.70;;
36931;SDS011;22847;42.654;23.370;2023-07-13T14:42:57;15.45;;;6.72;;
36931;SDS011;22847;42.654;23.370;2023-07-13T14:45:23;23.35;;;9.38;;
36931;SDS011;22847;42.654;23.370;2023-07-13T14:47:50;25.38;;;7.60;;
36931;SDS011;22847;42.654;23.370;2023-07-13T14:50:30;17.10;;;6.95;;
36931;SDS011;22847;42.654;23.370;2023-07-13T14:52:57;19.98;;;7.45;;
36931;SDS011;22847;42.654;23.370;2023-07-13T14:55:23;21.23;;;7.97;;
36931;SDS011;22847;42.654;23.370;2023-07-13T14:57:51;16.40;;;6.90;;
36931;SDS011;22847;42.654;23.370;2023-07-13T15:00:18;19.35;;;7.60;;
36931;SDS011;22847;42.654;23.370;2023-07-13T15:02:47;20.35;;;7.00;;
36931;SDS011;22847;42.654;23.370;2023-07-13T15:05:16;14.63;;;7.40;;
36931;SDS011;22847;42.654;23.370;2023-07-13T15:07:44;14.23;;;6.68;;
36931;SDS011;22847;42.654;23.370;2023-07-13T15:10:14;13.68;;;7.40;;
36931;SDS011;22847;42.654;23.370;2023-07-13T15:12:44;19.65;;;6.93;;
36931;SDS011;22847;42.654;23.370;2023-07-13T15:15:10;15.23;;;6.35;;